sensor_id;sensor_type;location;lat;lon;timestamp;P1;durP1;ratioP1;P2;durP2;ratioP2
28834;SDS011;15969;51.536;11.884;2023-03-09T00:02:03;11.83;;;8.67;;
28834;SDS011;15969;51.536;11.884;2023-03-09T00:04:29;12.57;;;9.30;;
28834;SDS011;15969;51.536;11.884;2023-03-09T00:06:56;13.97;;;9.20;;
28834;SDS011;15969;51.536;11.884;2023-03-09T00:09:22;12.37;;;8.80;;
28834;SDS011;15969;51.536;11.884;2023-03-09T00:11:48;14.63;;;10.20;;
28834;SDS011;15969;51.536;11.884;2023-03-09T00:14:14;13.50;;;10.63;;
28834;SDS011;15969;51.536;11.884;2023-03-09T00:16:43;13.13;;;10.07;;
28834;SDS011;15969;51.536;11.884;2023-03-09T00:19:09;12.57;;;9.77;;
28834;SDS011;15969;51.536;11.884;2023-03-09T00:21:34;13.57;;;10.23;;
28834;SDS011;15969;51.536;11.884;2023-03-09T00:24:07;14.07;;;10.37;;
28834;SDS011;15969;51.536;11.884;2023-03-09T00:26:36;14.67;;;10.63;;
28834;SDS011;15969;51.536;11.884;2023-03-09T00:29:05;13.87;;;9.93;;
28834;SDS011;15969;51.536;11.884;2023-03-09T00:31:32;13.90;;;10.67;;
28834;SDS011;15969;51.536;11.884;2023-03-09T00:33:58;14.37;;;10.23;;
28834;SDS011;15969;51.536;11.884;2023-03-09T00:36:24;14.53;;;10.53;;
28834;SDS011;15969;51.536;11.884;2023-03-09T00:38:53;15.17;;;10.67;;
28834;SDS011;15969;51.536;11.884;2023-03-09T00:41:21;14.20;;;10.33;;
28834;SDS011;15969;51.536;11.884;2023-03-09T00:43:48;14.13;;;9.50;;
28834;SDS011;15969;51.536;11.884;2023-03-09T00:46:15;13.10;;;9.60;;
28834;SDS011;15969;51.536;11.884;2023-03-09T00:48:41;12.30;;;9.00;;
28834;SDS011;15969;51.536;11.884;2023-03-09T00:51:07;13.33;;;10.30;;
28834;SDS011;15969;51.536;11.884;2023-03-09T00:53:34;13.13;;;9.93;;
28834;SDS011;15969;51.536;11.884;2023-03-09T00:56:00;12.43;;;9.33;;
28834;SDS011;15969;51.536;11.884;2023-03-09T00:58:32;11.27;;;8.57;;
28834;SDS011;15969;51.536;11.884;2023-03-09T01:00:58;12.80;;;9.20;;
28834;SDS011;15969;51.536;11.884;2023-03-09T01:03:24;13.93;;;8.70;;
28834;SDS011;15969;51.536;11.884;2023-03-09T01:05:50;10.80;;;7.93;;
28834;SDS011;15969;51.536;11.884;2023-03-09T01:08:16;11.60;;;8.73;;
28834;SDS011;15969;51.536;11.884;2023-03-09T01:10:42;11.60;;;8.53;;
28834;SDS011;15969;51.536;11.884;2023-03-09T01:13:08;10.97;;;8.27;;
28834;SDS011;15969;51.536;11.884;2023-03-09T01:15:35;10.60;;;8.07;;
28834;SDS011;15969;51.536;11.884;2023-03-09T01:18:02;10.53;;;7.50;;
28834;SDS011;15969;51.536;11.884;2023-03-09T01:20:28;11.53;;;8.53;;
28834;SDS011;15969;51.536;11.884;2023-03-09T01:22:54;10.40;;;7.50;;
28834;SDS011;15969;51.536;11.884;2023-03-09T01:25:19;10.30;;;8.33;;
28834;SDS011;15969;51.536;11.884;2023-03-09T01:27:45;10.20;;;8.13;;
28834;SDS011;15969;51.536;11.884;2023-03-09T01:30:11;10.20;;;7.37;;
28834;SDS011;15969;51.536;11.884;2023-03-09T01:32:37;10.23;;;7.90;;
28834;SDS011;15969;51.536;11.884;2023-03-09T01:35:03;9.67;;;7.03;;
28834;SDS011;15969;51.536;11.884;2023-03-09T01:37:30;10.23;;;7.67;;
28834;SDS011;15969;51.536;11.884;2023-03-09T01:39:56;9.50;;;7.73;;
28834;SDS011;15969;51.536;11.884;2023-03-09T01:42:22;9.83;;;8.03;;
28834;SDS011;15969;51.536;11.884;2023-03-09T01:47:44;9.10;;;6.83;;
28834;SDS011;15969;51.536;11.884;2023-03-09T01:50:11;9.53;;;7.20;;
28834;SDS011;15969;51.536;11.884;2023-03-09T01:52:40;9.77;;;7.10;;
28834;SDS011;15969;51.536;11.884;2023-03-09T01:55:10;8.70;;;6.83;;
28834;SDS011;15969;51.536;11.884;2023-03-09T02:00:30;9.87;;;7.23;;
28834;SDS011;15969;51.536;11.884;2023-03-09T02:03:00;9.13;;;7.03;;
28834;SDS011;15969;51.536;11.884;2023-03-09T02:05:34;8.90;;;6.87;;
28834;SDS011;15969;51.536;11.884;2023-03-09T02:08:11;8.67;;;7.17;;
28834;SDS011;15969;51.536;11.884;2023-03-09T02:10:38;8.13;;;6.80;;
28834;SDS011;15969;51.536;11.884;2023-03-09T02:13:12;8.00;;;6.17;;
28834;SDS011;15969;51.536;11.884;2023-03-09T02:15:42;7.77;;;6.43;;
28834;SDS011;15969;51.536;11.884;2023-03-09T02:18:08;8.30;;;6.83;;
28834;SDS011;15969;51.536;11.884;2023-03-09T02:26:24;8.13;;;6.20;;
28834;SDS011;15969;51.536;11.884;2023-03-09T02:29:05;7.63;;;6.37;;
28834;SDS011;15969;51.536;11.884;2023-03-09T02:31:31;8.07;;;6.67;;
28834;SDS011;15969;51.536;11.884;2023-03-09T02:33:58;8.40;;;6.70;;
28834;SDS011;15969;51.536;11.884;2023-03-09T02:36:23;7.63;;;6.30;;
28834;SDS011;15969;51.536;11.884;2023-03-09T02:38:50;7.67;;;6.50;;
28834;SDS011;15969;51.536;11.884;2023-03-09T02:41:16;8.23;;;6.57;;
28834;SDS011;15969;51.536;11.884;2023-03-09T02:43:49;7.77;;;6.43;;
28834;SDS011;15969;51.536;11.884;2023-03-09T02:46:17;8.13;;;6.37;;
28834;SDS011;15969;51.536;11.884;2023-03-09T02:48:43;8.73;;;7.00;;
28834;SDS011;15969;51.536;11.884;2023-03-09T02:51:09;8.90;;;7.10;;
28834;SDS011;15969;51.536;11.884;2023-03-09T02:53:35;8.83;;;7.30;;
28834;SDS011;15969;51.536;11.884;2023-03-09T02:56:01;8.87;;;7.43;;
28834;SDS011;15969;51.536;11.884;2023-03-09T02:58:27;8.53;;;6.87;;
28834;SDS011;15969;51.536;11.884;2023-03-09T03:00:53;9.43;;;7.63;;
28834;SDS011;15969;51.536;11.884;2023-03-09T03:03:18;7.67;;;6.83;;
28834;SDS011;15969;51.536;11.884;2023-03-09T03:05:45;11.27;;;8.03;;
28834;SDS011;15969;51.536;11.884;2023-03-09T03:08:14;8.73;;;6.87;;
28834;SDS011;15969;51.536;11.884;2023-03-09T03:10:40;10.20;;;7.90;;
28834;SDS011;15969;51.536;11.884;2023-03-09T03:13:05;10.23;;;7.77;;
28834;SDS011;15969;51.536;11.884;2023-03-09T03:15:31;9.10;;;7.87;;
28834;SDS011;15969;51.536;11.884;2023-03-09T03:17:57;9.20;;;7.73;;
28834;SDS011;15969;51.536;11.884;2023-03-09T03:20:23;10.00;;;7.53;;
28834;SDS011;15969;51.536;11.884;2023-03-09T03:22:50;10.03;;;7.53;;
28834;SDS011;15969;51.536;11.884;2023-03-09T03:25:16;8.07;;;7.13;;
28834;SDS011;15969;51.536;11.884;2023-03-09T03:27:42;9.07;;;7.37;;
28834;SDS011;15969;51.536;11.884;2023-03-09T03:30:08;8.37;;;7.40;;
28834;SDS011;15969;51.536;11.884;2023-03-09T03:32:35;10.20;;;8.07;;
28834;SDS011;15969;51.536;11.884;2023-03-09T03:35:01;9.63;;;7.03;;
28834;SDS011;15969;51.536;11.884;2023-03-09T03:37:26;9.83;;;7.67;;
28834;SDS011;15969;51.536;11.884;2023-03-09T03:39:52;8.20;;;6.80;;
28834;SDS011;15969;51.536;11.884;2023-03-09T03:42:18;11.10;;;7.63;;
28834;SDS011;15969;51.536;11.884;2023-03-09T03:44:44;9.10;;;7.57;;
28834;SDS011;15969;51.536;11.884;2023-03-09T03:47:09;7.77;;;6.70;;
28834;SDS011;15969;51.536;11.884;2023-03-09T03:49:35;9.60;;;7.00;;
28834;SDS011;15969;51.536;11.884;2023-03-09T03:52:01;8.90;;;6.97;;
28834;SDS011;15969;51.536;11.884;2023-03-09T03:54:27;8.33;;;6.70;;
28834;SDS011;15969;51.536;11.884;2023-03-09T03:56:52;8.37;;;7.37;;
28834;SDS011;15969;51.536;11.884;2023-03-09T03:59:18;8.70;;;6.70;;
28834;SDS011;15969;51.536;11.884;2023-03-09T04:01:44;9.37;;;7.80;;
28834;SDS011;15969;51.536;11.884;2023-03-09T04:04:09;10.17;;;7.47;;
28834;SDS011;15969;51.536;11.884;2023-03-09T04:06:35;8.47;;;7.20;;
28834;SDS011;15969;51.536;11.884;2023-03-09T04:09:01;8.63;;;7.33;;
28834;SDS011;15969;51.536;11.884;2023-03-09T04:11:27;8.40;;;6.73;;
28834;SDS011;15969;51.536;11.884;2023-03-09T04:13:52;9.00;;;7.53;;
28834;SDS011;15969;51.536;11.884;2023-03-09T04:16:18;8.97;;;7.30;;
28834;SDS011;15969;51.536;11.884;2023-03-09T04:18:44;9.17;;;6.33;;
28834;SDS011;15969;51.536;11.884;2023-03-09T04:21:09;8.50;;;7.03;;
28834;SDS011;15969;51.536;11.884;2023-03-09T04:23:35;8.30;;;6.23;;
28834;SDS011;15969;51.536;11.884;2023-03-09T04:26:01;7.00;;;6.00;;
28834;SDS011;15969;51.536;11.884;2023-03-09T04:28:29;6.93;;;5.97;;
28834;SDS011;15969;51.536;11.884;2023-03-09T04:30:55;7.97;;;6.13;;
28834;SDS011;15969;51.536;11.884;2023-03-09T04:33:21;6.80;;;6.00;;
28834;SDS011;15969;51.536;11.884;2023-03-09T04:35:46;7.37;;;6.30;;
28834;SDS011;15969;51.536;11.884;2023-03-09T04:38:12;7.37;;;5.87;;
28834;SDS011;15969;51.536;11.884;2023-03-09T04:40:38;7.27;;;6.20;;
28834;SDS011;15969;51.536;11.884;2023-03-09T04:43:04;7.77;;;5.93;;
28834;SDS011;15969;51.536;11.884;2023-03-09T04:45:30;9.33;;;6.70;;
28834;SDS011;15969;51.536;11.884;2023-03-09T04:47:56;7.97;;;5.97;;
28834;SDS011;15969;51.536;11.884;2023-03-09T04:50:21;7.40;;;6.57;;
28834;SDS011;15969;51.536;11.884;2023-03-09T04:52:47;7.20;;;6.50;;
28834;SDS011;15969;51.536;11.884;2023-03-09T04:55:14;6.77;;;5.93;;
28834;SDS011;15969;51.536;11.884;2023-03-09T04:57:41;6.27;;;5.43;;
28834;SDS011;15969;51.536;11.884;2023-03-09T05:00:07;7.93;;;5.77;;
28834;SDS011;15969;51.536;11.884;2023-03-09T05:02:36;11.37;;;8.97;;
28834;SDS011;15969;51.536;11.884;2023-03-09T05:05:02;6.63;;;5.93;;
28834;SDS011;15969;51.536;11.884;2023-03-09T05:07:29;8.00;;;5.43;;
28834;SDS011;15969;51.536;11.884;2023-03-09T05:09:55;8.40;;;5.90;;
28834;SDS011;15969;51.536;11.884;2023-03-09T05:12:20;6.57;;;5.30;;
28834;SDS011;15969;51.536;11.884;2023-03-09T05:14:46;6.00;;;5.20;;
28834;SDS011;15969;51.536;11.884;2023-03-09T05:17:12;5.67;;;4.80;;
28834;SDS011;15969;51.536;11.884;2023-03-09T05:19:37;5.43;;;4.20;;
28834;SDS011;15969;51.536;11.884;2023-03-09T05:22:03;5.47;;;3.87;;
28834;SDS011;15969;51.536;11.884;2023-03-09T05:24:30;5.47;;;4.50;;
28834;SDS011;15969;51.536;11.884;2023-03-09T05:26:56;5.40;;;4.20;;
28834;SDS011;15969;51.536;11.884;2023-03-09T05:29:22;5.33;;;4.70;;
28834;SDS011;15969;51.536;11.884;2023-03-09T05:31:47;5.77;;;4.37;;
28834;SDS011;15969;51.536;11.884;2023-03-09T05:34:13;6.80;;;4.30;;
28834;SDS011;15969;51.536;11.884;2023-03-09T05:36:39;5.10;;;4.10;;
28834;SDS011;15969;51.536;11.884;2023-03-09T05:39:04;5.13;;;4.20;;
28834;SDS011;15969;51.536;11.884;2023-03-09T05:41:30;4.87;;;4.30;;
28834;SDS011;15969;51.536;11.884;2023-03-09T05:43:59;4.20;;;3.60;;
28834;SDS011;15969;51.536;11.884;2023-03-09T05:46:25;5.00;;;3.80;;
28834;SDS011;15969;51.536;11.884;2023-03-09T05:48:51;4.93;;;4.20;;
28834;SDS011;15969;51.536;11.884;2023-03-09T05:51:17;5.27;;;3.60;;
28834;SDS011;15969;51.536;11.884;2023-03-09T05:53:42;5.87;;;4.03;;
28834;SDS011;15969;51.536;11.884;2023-03-09T05:56:08;6.13;;;4.70;;
28834;SDS011;15969;51.536;11.884;2023-03-09T05:58:34;5.20;;;4.70;;
28834;SDS011;15969;51.536;11.884;2023-03-09T06:01:00;5.33;;;4.43;;
28834;SDS011;15969;51.536;11.884;2023-03-09T06:03:26;5.80;;;4.77;;
28834;SDS011;15969;51.536;11.884;2023-03-09T06:06:03;6.00;;;5.40;;
28834;SDS011;15969;51.536;11.884;2023-03-09T06:08:30;5.23;;;4.67;;
28834;SDS011;15969;51.536;11.884;2023-03-09T06:10:59;6.40;;;5.40;;
28834;SDS011;15969;51.536;11.884;2023-03-09T06:13:26;6.30;;;5.43;;
28834;SDS011;15969;51.536;11.884;2023-03-09T06:15:52;7.30;;;5.53;;
28834;SDS011;15969;51.536;11.884;2023-03-09T06:18:18;6.23;;;5.50;;
28834;SDS011;15969;51.536;11.884;2023-03-09T06:20:45;9.87;;;6.13;;
28834;SDS011;15969;51.536;11.884;2023-03-09T06:23:12;7.77;;;6.17;;
28834;SDS011;15969;51.536;11.884;2023-03-09T06:25:38;7.47;;;5.57;;
28834;SDS011;15969;51.536;11.884;2023-03-09T06:28:04;7.40;;;5.63;;
28834;SDS011;15969;51.536;11.884;2023-03-09T06:30:30;7.27;;;6.30;;
28834;SDS011;15969;51.536;11.884;2023-03-09T06:32:56;6.10;;;5.50;;
28834;SDS011;15969;51.536;11.884;2023-03-09T06:35:25;7.57;;;6.30;;
28834;SDS011;15969;51.536;11.884;2023-03-09T06:37:50;7.57;;;5.80;;
28834;SDS011;15969;51.536;11.884;2023-03-09T06:40:16;6.93;;;5.87;;
28834;SDS011;15969;51.536;11.884;2023-03-09T06:42:42;6.83;;;6.00;;
28834;SDS011;15969;51.536;11.884;2023-03-09T06:45:08;9.07;;;6.03;;
28834;SDS011;15969;51.536;11.884;2023-03-09T06:47:34;7.50;;;5.83;;
28834;SDS011;15969;51.536;11.884;2023-03-09T06:50:00;7.40;;;6.50;;
28834;SDS011;15969;51.536;11.884;2023-03-09T06:52:26;8.63;;;6.20;;
28834;SDS011;15969;51.536;11.884;2023-03-09T06:54:52;7.53;;;6.07;;
28834;SDS011;15969;51.536;11.884;2023-03-09T06:57:18;8.23;;;6.97;;
28834;SDS011;15969;51.536;11.884;2023-03-09T06:59:44;8.23;;;6.50;;
28834;SDS011;15969;51.536;11.884;2023-03-09T07:02:12;10.00;;;6.20;;
28834;SDS011;15969;51.536;11.884;2023-03-09T07:04:40;7.53;;;5.67;;
28834;SDS011;15969;51.536;11.884;2023-03-09T07:07:06;7.03;;;6.10;;
28834;SDS011;15969;51.536;11.884;2023-03-09T07:09:33;7.23;;;5.87;;
28834;SDS011;15969;51.536;11.884;2023-03-09T07:11:59;7.40;;;6.03;;
28834;SDS011;15969;51.536;11.884;2023-03-09T07:14:25;7.23;;;5.87;;
28834;SDS011;15969;51.536;11.884;2023-03-09T07:16:55;7.13;;;5.93;;
28834;SDS011;15969;51.536;11.884;2023-03-09T07:19:21;6.80;;;6.10;;
28834;SDS011;15969;51.536;11.884;2023-03-09T07:21:48;6.80;;;5.70;;
28834;SDS011;15969;51.536;11.884;2023-03-09T07:24:14;6.87;;;5.83;;
28834;SDS011;15969;51.536;11.884;2023-03-09T07:26:40;6.83;;;5.77;;
28834;SDS011;15969;51.536;11.884;2023-03-09T07:29:06;7.00;;;5.90;;
28834;SDS011;15969;51.536;11.884;2023-03-09T07:31:32;7.60;;;6.40;;
28834;SDS011;15969;51.536;11.884;2023-03-09T07:33:58;7.60;;;6.37;;
28834;SDS011;15969;51.536;11.884;2023-03-09T07:36:24;7.53;;;6.30;;
28834;SDS011;15969;51.536;11.884;2023-03-09T07:38:50;7.63;;;6.43;;
28834;SDS011;15969;51.536;11.884;2023-03-09T07:41:17;7.73;;;6.93;;
28834;SDS011;15969;51.536;11.884;2023-03-09T07:43:43;7.33;;;6.27;;
28834;SDS011;15969;51.536;11.884;2023-03-09T07:46:10;7.77;;;6.67;;
28834;SDS011;15969;51.536;11.884;2023-03-09T07:48:41;7.67;;;6.30;;
28834;SDS011;15969;51.536;11.884;2023-03-09T07:51:08;7.60;;;6.73;;
28834;SDS011;15969;51.536;11.884;2023-03-09T07:53:36;7.97;;;6.73;;
28834;SDS011;15969;51.536;11.884;2023-03-09T07:56:04;7.73;;;6.80;;
28834;SDS011;15969;51.536;11.884;2023-03-09T07:58:33;7.63;;;6.70;;
28834;SDS011;15969;51.536;11.884;2023-03-09T08:01:01;8.80;;;7.07;;
28834;SDS011;15969;51.536;11.884;2023-03-09T08:03:28;8.60;;;7.07;;
28834;SDS011;15969;51.536;11.884;2023-03-09T08:05:54;8.07;;;6.60;;
28834;SDS011;15969;51.536;11.884;2023-03-09T08:08:24;9.27;;;7.20;;
28834;SDS011;15969;51.536;11.884;2023-03-09T08:10:53;7.97;;;7.03;;
28834;SDS011;15969;51.536;11.884;2023-03-09T08:13:20;9.50;;;7.70;;
28834;SDS011;15969;51.536;11.884;2023-03-09T08:15:47;9.37;;;7.20;;
28834;SDS011;15969;51.536;11.884;2023-03-09T08:18:13;8.67;;;7.33;;
28834;SDS011;15969;51.536;11.884;2023-03-09T08:20:39;10.10;;;7.90;;
28834;SDS011;15969;51.536;11.884;2023-03-09T08:23:05;9.40;;;7.93;;
28834;SDS011;15969;51.536;11.884;2023-03-09T08:25:32;9.27;;;8.10;;
28834;SDS011;15969;51.536;11.884;2023-03-09T08:27:58;10.50;;;8.20;;
28834;SDS011;15969;51.536;11.884;2023-03-09T08:30:24;9.37;;;8.37;;
28834;SDS011;15969;51.536;11.884;2023-03-09T08:32:51;9.07;;;8.03;;
28834;SDS011;15969;51.536;11.884;2023-03-09T08:35:18;9.60;;;7.83;;
28834;SDS011;15969;51.536;11.884;2023-03-09T08:37:47;9.60;;;7.87;;
28834;SDS011;15969;51.536;11.884;2023-03-09T08:40:13;8.87;;;7.93;;
28834;SDS011;15969;51.536;11.884;2023-03-09T08:42:41;8.83;;;7.73;;
28834;SDS011;15969;51.536;11.884;2023-03-09T08:45:07;9.83;;;8.37;;
28834;SDS011;15969;51.536;11.884;2023-03-09T08:47:34;13.13;;;9.23;;
28834;SDS011;15969;51.536;11.884;2023-03-09T08:50:00;10.07;;;8.03;;
28834;SDS011;15969;51.536;11.884;2023-03-09T08:52:26;11.20;;;9.23;;
28834;SDS011;15969;51.536;11.884;2023-03-09T08:54:51;10.90;;;9.27;;
28834;SDS011;15969;51.536;11.884;2023-03-09T08:57:17;10.40;;;8.90;;
28834;SDS011;15969;51.536;11.884;2023-03-09T08:59:43;12.53;;;8.90;;
28834;SDS011;15969;51.536;11.884;2023-03-09T09:02:12;9.60;;;8.07;;
28834;SDS011;15969;51.536;11.884;2023-03-09T09:04:42;9.80;;;8.43;;
28834;SDS011;15969;51.536;11.884;2023-03-09T09:07:09;10.80;;;8.67;;
28834;SDS011;15969;51.536;11.884;2023-03-09T09:09:36;11.50;;;9.07;;
28834;SDS011;15969;51.536;11.884;2023-03-09T09:12:03;10.57;;;9.00;;
28834;SDS011;15969;51.536;11.884;2023-03-09T09:14:29;10.20;;;9.10;;
28834;SDS011;15969;51.536;11.884;2023-03-09T09:16:54;10.07;;;8.57;;
28834;SDS011;15969;51.536;11.884;2023-03-09T09:19:21;11.30;;;9.30;;
28834;SDS011;15969;51.536;11.884;2023-03-09T09:21:47;11.73;;;9.13;;
28834;SDS011;15969;51.536;11.884;2023-03-09T09:24:13;10.30;;;9.00;;
28834;SDS011;15969;51.536;11.884;2023-03-09T09:26:39;11.50;;;10.13;;
28834;SDS011;15969;51.536;11.884;2023-03-09T09:29:06;11.73;;;9.40;;
28834;SDS011;15969;51.536;11.884;2023-03-09T09:31:32;11.40;;;9.57;;
28834;SDS011;15969;51.536;11.884;2023-03-09T09:33:58;10.27;;;9.03;;
28834;SDS011;15969;51.536;11.884;2023-03-09T09:36:24;10.87;;;9.20;;
28834;SDS011;15969;51.536;11.884;2023-03-09T09:38:51;10.90;;;9.00;;
28834;SDS011;15969;51.536;11.884;2023-03-09T09:41:19;11.10;;;9.90;;
28834;SDS011;15969;51.536;11.884;2023-03-09T09:44:01;14.03;;;9.23;;
28834;SDS011;15969;51.536;11.884;2023-03-09T09:46:30;11.80;;;9.93;;
28834;SDS011;15969;51.536;11.884;2023-03-09T09:48:59;11.23;;;9.43;;
28834;SDS011;15969;51.536;11.884;2023-03-09T09:54:36;12.30;;;9.63;;
28834;SDS011;15969;51.536;11.884;2023-03-09T10:02:44;10.83;;;9.13;;
28834;SDS011;15969;51.536;11.884;2023-03-09T10:05:49;12.37;;;10.97;;
28834;SDS011;15969;51.536;11.884;2023-03-09T10:10:51;12.33;;;9.60;;
28834;SDS011;15969;51.536;11.884;2023-03-09T10:13:20;12.10;;;9.37;;
28834;SDS011;15969;51.536;11.884;2023-03-09T10:16:01;9.70;;;8.40;;
28834;SDS011;15969;51.536;11.884;2023-03-09T10:18:34;12.10;;;9.93;;
28834;SDS011;15969;51.536;11.884;2023-03-09T10:21:12;12.87;;;10.10;;
28834;SDS011;15969;51.536;11.884;2023-03-09T10:24:18;13.13;;;10.67;;
28834;SDS011;15969;51.536;11.884;2023-03-09T10:32:20;12.50;;;11.03;;
28834;SDS011;15969;51.536;11.884;2023-03-09T10:37:58;12.53;;;10.40;;
28834;SDS011;15969;51.536;11.884;2023-03-09T10:40:28;11.77;;;10.37;;
28834;SDS011;15969;51.536;11.884;2023-03-09T10:43:12;13.33;;;10.17;;
28834;SDS011;15969;51.536;11.884;2023-03-09T10:46:08;10.93;;;9.53;;
28834;SDS011;15969;51.536;11.884;2023-03-09T10:48:44;10.47;;;9.37;;
28834;SDS011;15969;51.536;11.884;2023-03-09T10:51:27;11.20;;;9.97;;
28834;SDS011;15969;51.536;11.884;2023-03-09T10:53:55;11.93;;;10.07;;
28834;SDS011;15969;51.536;11.884;2023-03-09T10:56:30;12.17;;;10.23;;
28834;SDS011;15969;51.536;11.884;2023-03-09T10:59:07;12.73;;;10.70;;
28834;SDS011;15969;51.536;11.884;2023-03-09T11:01:40;15.00;;;10.60;;
28834;SDS011;15969;51.536;11.884;2023-03-09T11:06:48;12.93;;;9.63;;
28834;SDS011;15969;51.536;11.884;2023-03-09T11:12:17;13.20;;;11.20;;
28834;SDS011;15969;51.536;11.884;2023-03-09T11:14:57;11.40;;;10.20;;
28834;SDS011;15969;51.536;11.884;2023-03-09T11:17:43;11.60;;;9.87;;
28834;SDS011;15969;51.536;11.884;2023-03-09T11:26:12;12.37;;;8.90;;
28834;SDS011;15969;51.536;11.884;2023-03-09T11:31:35;11.70;;;10.00;;
28834;SDS011;15969;51.536;11.884;2023-03-09T11:34:16;14.63;;;10.83;;
28834;SDS011;15969;51.536;11.884;2023-03-09T11:37:07;13.60;;;11.27;;
28834;SDS011;15969;51.536;11.884;2023-03-09T11:39:48;12.27;;;10.10;;
28834;SDS011;15969;51.536;11.884;2023-03-09T11:42:23;12.27;;;10.00;;
28834;SDS011;15969;51.536;11.884;2023-03-09T11:45:13;12.07;;;10.07;;
28834;SDS011;15969;51.536;11.884;2023-03-09T11:47:59;13.60;;;10.57;;
28834;SDS011;15969;51.536;11.884;2023-03-09T11:54:06;13.47;;;9.57;;
28834;SDS011;15969;51.536;11.884;2023-03-09T11:56:55;13.03;;;10.97;;
28834;SDS011;15969;51.536;11.884;2023-03-09T12:02:25;13.23;;;10.50;;
28834;SDS011;15969;51.536;11.884;2023-03-09T12:04:58;13.60;;;10.50;;
28834;SDS011;15969;51.536;11.884;2023-03-09T12:07:28;12.77;;;10.03;;
28834;SDS011;15969;51.536;11.884;2023-03-09T12:12:56;11.73;;;10.07;;
28834;SDS011;15969;51.536;11.884;2023-03-09T12:18:04;12.33;;;10.23;;
28834;SDS011;15969;51.536;11.884;2023-03-09T12:20:40;13.63;;;10.60;;
28834;SDS011;15969;51.536;11.884;2023-03-09T12:23:40;13.80;;;10.60;;
28834;SDS011;15969;51.536;11.884;2023-03-09T12:26:20;13.33;;;10.67;;
28834;SDS011;15969;51.536;11.884;2023-03-09T12:29:14;12.03;;;10.57;;
28834;SDS011;15969;51.536;11.884;2023-03-09T12:31:45;13.30;;;10.10;;
28834;SDS011;15969;51.536;11.884;2023-03-09T12:34:46;11.57;;;10.17;;
28834;SDS011;15969;51.536;11.884;2023-03-09T12:40:00;12.40;;;10.43;;
28834;SDS011;15969;51.536;11.884;2023-03-09T12:42:42;13.30;;;10.93;;
28834;SDS011;15969;51.536;11.884;2023-03-09T12:47:43;11.43;;;9.43;;
28834;SDS011;15969;51.536;11.884;2023-03-09T12:55:47;12.90;;;10.10;;
28834;SDS011;15969;51.536;11.884;2023-03-09T12:58:50;11.30;;;9.63;;
28834;SDS011;15969;51.536;11.884;2023-03-09T13:04:10;11.07;;;9.53;;
28834;SDS011;15969;51.536;11.884;2023-03-09T13:11:38;15.40;;;10.60;;
28834;SDS011;15969;51.536;11.884;2023-03-09T13:14:17;12.77;;;10.17;;
28834;SDS011;15969;51.536;11.884;2023-03-09T13:17:48;13.60;;;10.50;;
28834;SDS011;15969;51.536;11.884;2023-03-09T13:19:56;12.83;;;10.00;;
28834;SDS011;15969;51.536;11.884;2023-03-09T13:22:58;12.37;;;9.57;;
28834;SDS011;15969;51.536;11.884;2023-03-09T13:25:39;12.80;;;10.43;;
28834;SDS011;15969;51.536;11.884;2023-03-09T13:31:05;12.87;;;9.93;;
28834;SDS011;15969;51.536;11.884;2023-03-09T13:33:48;12.40;;;9.93;;
28834;SDS011;15969;51.536;11.884;2023-03-09T13:36:19;12.37;;;10.20;;
28834;SDS011;15969;51.536;11.884;2023-03-09T13:39:34;12.13;;;10.37;;
28834;SDS011;15969;51.536;11.884;2023-03-09T13:41:42;12.33;;;10.23;;
28834;SDS011;15969;51.536;11.884;2023-03-09T13:44:21;12.20;;;10.17;;
28834;SDS011;15969;51.536;11.884;2023-03-09T13:46:49;11.90;;;9.73;;
28834;SDS011;15969;51.536;11.884;2023-03-09T13:49:19;10.07;;;8.97;;
28834;SDS011;15969;51.536;11.884;2023-03-09T13:51:56;12.23;;;9.63;;
28834;SDS011;15969;51.536;11.884;2023-03-09T13:54:33;10.90;;;9.70;;
28834;SDS011;15969;51.536;11.884;2023-03-09T13:57:04;10.97;;;9.50;;
28834;SDS011;15969;51.536;11.884;2023-03-09T14:02:27;10.90;;;9.53;;
28834;SDS011;15969;51.536;11.884;2023-03-09T14:07:22;11.07;;;9.40;;
28834;SDS011;15969;51.536;11.884;2023-03-09T14:09:52;13.93;;;11.47;;
28834;SDS011;15969;51.536;11.884;2023-03-09T14:12:26;10.77;;;9.50;;
28834;SDS011;15969;51.536;11.884;2023-03-09T14:14:58;12.87;;;10.30;;
28834;SDS011;15969;51.536;11.884;2023-03-09T14:17:27;12.73;;;10.10;;
28834;SDS011;15969;51.536;11.884;2023-03-09T14:19:54;11.47;;;9.90;;
28834;SDS011;15969;51.536;11.884;2023-03-09T14:22:21;12.63;;;10.67;;
28834;SDS011;15969;51.536;11.884;2023-03-09T14:24:53;15.47;;;11.40;;
28834;SDS011;15969;51.536;11.884;2023-03-09T14:27:30;12.20;;;10.50;;
28834;SDS011;15969;51.536;11.884;2023-03-09T14:29:58;12.60;;;10.20;;
28834;SDS011;15969;51.536;11.884;2023-03-09T14:33:20;11.23;;;9.87;;
28834;SDS011;15969;51.536;11.884;2023-03-09T14:36:31;14.03;;;10.57;;
28834;SDS011;15969;51.536;11.884;2023-03-09T14:39:00;14.60;;;10.63;;
28834;SDS011;15969;51.536;11.884;2023-03-09T14:41:35;12.50;;;9.60;;
28834;SDS011;15969;51.536;11.884;2023-03-09T14:44:02;14.40;;;10.27;;
28834;SDS011;15969;51.536;11.884;2023-03-09T14:46:29;13.03;;;11.03;;
28834;SDS011;15969;51.536;11.884;2023-03-09T14:48:58;13.93;;;11.43;;
28834;SDS011;15969;51.536;11.884;2023-03-09T14:51:30;13.83;;;11.50;;
28834;SDS011;15969;51.536;11.884;2023-03-09T14:56:28;13.33;;;11.73;;
28834;SDS011;15969;51.536;11.884;2023-03-09T14:58:56;16.67;;;12.13;;
28834;SDS011;15969;51.536;11.884;2023-03-09T15:01:23;15.47;;;12.90;;
28834;SDS011;15969;51.536;11.884;2023-03-09T15:03:50;14.07;;;11.40;;
28834;SDS011;15969;51.536;11.884;2023-03-09T15:06:16;15.40;;;12.30;;
28834;SDS011;15969;51.536;11.884;2023-03-09T15:08:42;15.03;;;11.90;;
28834;SDS011;15969;51.536;11.884;2023-03-09T15:11:07;14.60;;;11.87;;
28834;SDS011;15969;51.536;11.884;2023-03-09T15:13:33;14.50;;;11.90;;
28834;SDS011;15969;51.536;11.884;2023-03-09T15:16:00;13.77;;;11.93;;
28834;SDS011;15969;51.536;11.884;2023-03-09T15:18:27;15.17;;;11.57;;
28834;SDS011;15969;51.536;11.884;2023-03-09T15:20:53;15.10;;;11.83;;
28834;SDS011;15969;51.536;11.884;2023-03-09T15:23:18;15.43;;;11.20;;
28834;SDS011;15969;51.536;11.884;2023-03-09T15:25:44;14.93;;;11.80;;
28834;SDS011;15969;51.536;11.884;2023-03-09T15:28:10;14.43;;;11.43;;
28834;SDS011;15969;51.536;11.884;2023-03-09T15:30:36;15.50;;;11.93;;
28834;SDS011;15969;51.536;11.884;2023-03-09T15:33:02;14.13;;;11.30;;
28834;SDS011;15969;51.536;11.884;2023-03-09T15:35:28;14.23;;;11.13;;
28834;SDS011;15969;51.536;11.884;2023-03-09T15:37:54;13.50;;;11.07;;
28834;SDS011;15969;51.536;11.884;2023-03-09T15:40:20;16.50;;;11.93;;
28834;SDS011;15969;51.536;11.884;2023-03-09T15:42:46;14.87;;;11.93;;
28834;SDS011;15969;51.536;11.884;2023-03-09T15:45:13;15.00;;;11.77;;
28834;SDS011;15969;51.536;11.884;2023-03-09T15:47:40;15.63;;;12.07;;
28834;SDS011;15969;51.536;11.884;2023-03-09T15:50:07;16.03;;;12.63;;
28834;SDS011;15969;51.536;11.884;2023-03-09T15:52:34;15.83;;;12.67;;
28834;SDS011;15969;51.536;11.884;2023-03-09T15:55:02;15.73;;;12.40;;
28834;SDS011;15969;51.536;11.884;2023-03-09T15:57:29;15.53;;;12.00;;
28834;SDS011;15969;51.536;11.884;2023-03-09T15:59:55;16.80;;;12.73;;
28834;SDS011;15969;51.536;11.884;2023-03-09T16:02:22;13.77;;;11.67;;
28834;SDS011;15969;51.536;11.884;2023-03-09T16:04:48;15.33;;;12.33;;